Eiwa Maru — JG5742 — position and weather

sailwx.info

Track history (hours):
 
Tides and Currents Weather Stations Pressure Air Temp Water Temp Dewpoint Dewpoint Depression Visibility Wind Speed Wind Dir Waves Ship Positions

Eiwa Maru

Last reported at 2016-Sep-23 06:33 UTC. Time now 2016-Sep-27 08:49 UTC.
Position N 35°26' E 139°45'.

Length 80 m; draft 5.4 m.

Type: Ship (hazmat cat A). MMSI: 431101045.

Date/timePositionNaut miles runAvg speedWind from/ knotsBaromVisibWave heightAir tempDewpointWater temp
2016-Sep-23 06:33N 35°26' E 139°45'15 7.5
2016-Sep-23 04:32N 35°31' E 140°03'0 0.0
2016-Sep-23 03:33N 35°31' E 140°03'0 0.0
2016-Sep-23 02:33N 35°31' E 140°03'0 0.0
2016-Sep-23 01:33N 35°31' E 140°03'0 0.0
2016-Sep-23 00:33N 35°31' E 140°03'0 0.4
2016-Sep-22 23:31N 35°31' E 140°02'3 0.9
2016-Sep-22 20:33N 35°32' E 139°59'0 0.0
2016-Sep-22 12:33N 35°32' E 139°59'9 1.1
2016-Sep-22 04:33N 35°29' E 139°49'0 0.0
2016-Sep-22 03:33N 35°29' E 139°49'237 7.0
2016-Sep-20 17:29N 34°24' E 135°10'0 0.0
2016-Sep-20 14:30N 34°24' E 135°10'0 0.1
2016-Sep-20 13:33N 34°24' E 135°10'0 0.0
2016-Sep-20 10:24N 34°24' E 135°10'0 0.0
2016-Sep-20 07:26N 34°24' E 135°11'0 0.0
2016-Sep-19 23:34N 34°24' E 135°10'0 0.0
2016-Sep-19 19:33N 34°24' E 135°10'0 0.0
2016-Sep-19 18:33N 34°24' E 135°10'11 5.4
2016-Sep-19 16:27N 34°32' E 135°20'5 2.4
2016-Sep-19 14:33N 34°33' E 135°26'0 0.0
2016-Sep-19 13:33N 34°33' E 135°26'0 0.0
2016-Sep-19 12:34N 34°33' E 135°26'0 0.0
2016-Sep-19 11:33N 34°33' E 135°26'0 0.0
2016-Sep-19 09:33N 34°33' E 135°26'0 0.1
2016-Sep-19 07:33N 34°33' E 135°26'0 0.0
2016-Sep-19 03:19N 34°33' E 135°26'0 0.0
2016-Sep-19 02:30N 34°33' E 135°26'6 0.8
2016-Sep-18 19:32N 34°32' E 135°19'0 0.0
2016-Sep-18 15:32N 34°32' E 135°19'0 0.0
2016-Sep-18 14:32N 34°32' E 135°19'0 0.0
2016-Sep-18 09:12N 34°32' E 135°19'212 8.3
2016-Sep-17 07:33N 35°04' E 139°34'2010.1
2016-Sep-17 05:33N 35°23' E 139°42'1211.9
2016-Sep-17 04:34N 35°30' E 139°54'7 1.8
2016-Sep-17 00:32N 35°31' E 140°02'3 0.4
2016-Sep-16 17:29N 35°32' E 139°59'2 1.2
2016-Sep-16 15:33N 35°30' E 139°56'5 0.1
2016-Sep-15 04:33N 35°31' E 140°03'0 0.0
2016-Sep-15 03:33N 35°31' E 140°03'0 0.0
2016-Sep-15 01:33N 35°31' E 140°03'1 0.4
2016-Sep-14 22:33N 35°32' E 140°02'0 0.0
2016-Sep-14 21:33N 35°32' E 140°02'6 1.4
2016-Sep-14 17:33N 35°36' E 140°06'0 0.0
2016-Sep-14 16:33N 35°36' E 140°06'0 0.0
2016-Sep-14 13:33N 35°36' E 140°06'0 0.0
2016-Sep-14 12:33N 35°36' E 140°06'0 0.0
2016-Sep-14 10:33N 35°36' E 140°06'0 0.0
2016-Sep-14 09:33N 35°36' E 140°06'0 0.0
2016-Sep-14 08:33N 35°36' E 140°06'0 0.0
2016-Sep-14 07:33N 35°36' E 140°06'0 0.0
2016-Sep-14 03:33N 35°36' E 140°06'6 1.2
2016-Sep-13 22:33N 35°33' E 140°00'0 0.0
2016-Sep-13 20:33N 35°33' E 140°00'0 0.0
2016-Sep-13 18:33N 35°33' E 140°00'0 0.1
2016-Sep-13 17:33N 35°33' E 140°00'0 0.0
2016-Sep-13 16:33N 35°33' E 140°00'  
Track history (hours):
 
Tides and Currents Weather Stations Pressure Air Temp Water Temp Dewpoint Dewpoint Depression Visibility Wind Speed Wind Dir Waves Ship Positions

Eiwa Maru

Last reported at 2016-Sep-23 06:33 UTC. Time now 2016-Sep-27 08:49 UTC.
Position N 35°26' E 139°45'.

Length 80 m; draft 5.4 m.

Type: Ship (hazmat cat A). MMSI: 431101045.

Date/timePositionNaut miles runAvg speedWind from/ knotsBaromVisibWave heightAir tempDewpointWater temp
2016-Sep-23 06:33N 35°26' E 139°45'15 7.5
2016-Sep-23 04:32N 35°31' E 140°03'0 0.0
2016-Sep-23 03:33N 35°31' E 140°03'0 0.0
2016-Sep-23 02:33N 35°31' E 140°03'0 0.0
2016-Sep-23 01:33N 35°31' E 140°03'0 0.0
2016-Sep-23 00:33N 35°31' E 140°03'0 0.4
2016-Sep-22 23:31N 35°31' E 140°02'3 0.9
2016-Sep-22 20:33N 35°32' E 139°59'0 0.0
2016-Sep-22 12:33N 35°32' E 139°59'9 1.1
2016-Sep-22 04:33N 35°29' E 139°49'0 0.0
2016-Sep-22 03:33N 35°29' E 139°49'237 7.0
2016-Sep-20 17:29N 34°24' E 135°10'0 0.0
2016-Sep-20 14:30N 34°24' E 135°10'0 0.1
2016-Sep-20 13:33N 34°24' E 135°10'0 0.0
2016-Sep-20 10:24N 34°24' E 135°10'0 0.0
2016-Sep-20 07:26N 34°24' E 135°11'0 0.0
2016-Sep-19 23:34N 34°24' E 135°10'0 0.0
2016-Sep-19 19:33N 34°24' E 135°10'0 0.0
2016-Sep-19 18:33N 34°24' E 135°10'11 5.4
2016-Sep-19 16:27N 34°32' E 135°20'5 2.4
2016-Sep-19 14:33N 34°33' E 135°26'0 0.0
2016-Sep-19 13:33N 34°33' E 135°26'0 0.0
2016-Sep-19 12:34N 34°33' E 135°26'0 0.0
2016-Sep-19 11:33N 34°33' E 135°26'0 0.0
2016-Sep-19 09:33N 34°33' E 135°26'0 0.1
2016-Sep-19 07:33N 34°33' E 135°26'0 0.0
2016-Sep-19 03:19N 34°33' E 135°26'0 0.0
2016-Sep-19 02:30N 34°33' E 135°26'6 0.8
2016-Sep-18 19:32N 34°32' E 135°19'0 0.0
2016-Sep-18 15:32N 34°32' E 135°19'0 0.0
2016-Sep-18 14:32N 34°32' E 135°19'0 0.0
2016-Sep-18 09:12N 34°32' E 135°19'212 8.3
2016-Sep-17 07:33N 35°04' E 139°34'2010.1
2016-Sep-17 05:33N 35°23' E 139°42'1211.9
2016-Sep-17 04:34N 35°30' E 139°54'7 1.8
2016-Sep-17 00:32N 35°31' E 140°02'3 0.4
2016-Sep-16 17:29N 35°32' E 139°59'2 1.2
2016-Sep-16 15:33N 35°30' E 139°56'5 0.1
2016-Sep-15 04:33N 35°31' E 140°03'0 0.0
2016-Sep-15 03:33N 35°31' E 140°03'0 0.0
2016-Sep-15 01:33N 35°31' E 140°03'1 0.4
2016-Sep-14 22:33N 35°32' E 140°02'0 0.0
2016-Sep-14 21:33N 35°32' E 140°02'6 1.4
2016-Sep-14 17:33N 35°36' E 140°06'0 0.0
2016-Sep-14 16:33N 35°36' E 140°06'0 0.0
2016-Sep-14 13:33N 35°36' E 140°06'0 0.0
2016-Sep-14 12:33N 35°36' E 140°06'0 0.0
2016-Sep-14 10:33N 35°36' E 140°06'0 0.0
2016-Sep-14 09:33N 35°36' E 140°06'0 0.0
2016-Sep-14 08:33N 35°36' E 140°06'0 0.0
2016-Sep-14 07:33N 35°36' E 140°06'0 0.0
2016-Sep-14 03:33N 35°36' E 140°06'6 1.2
2016-Sep-13 22:33N 35°33' E 140°00'0 0.0
2016-Sep-13 20:33N 35°33' E 140°00'0 0.0
2016-Sep-13 18:33N 35°33' E 140°00'0 0.1
2016-Sep-13 17:33N 35°33' E 140°00'0 0.0
2016-Sep-13 16:33N 35°33' E 140°00'  

Dump ship's entire track history